Wetterdaten: aktuell Montag, 12.09.2016 00:00
Datum Zeit Temp. A. Feuchte A. Luftdruck Regen Wind Richtung Richtung Taupunkt Windchill Windben
12.09.2016 00:00 16,6 C 91 % 1019,6 hPa 0,0 l/m 0,0 km/h (0 Bft) N 0 15,1 C 16,6 C 0,0 km/h (0 Bft)
11.09.2016 23:55 16,6 C 91 % 1019,6 hPa 0,0 l/m 0,0 km/h (0 Bft) N 0 15,1 C 16,6 C 0,0 km/h (0 Bft)
11.09.2016 23:50 16,5 C 91 % 1019,5 hPa 0,0 l/m 0,0 km/h (0 Bft) N 0 15,0 C 16,5 C 0,0 km/h (0 Bft)
11.09.2016 23:45 16,6 C 91 % 1019,5 hPa 0,0 l/m 0,0 km/h (0 Bft) N 0 15,1 C 16,6 C 0,0 km/h (0 Bft)
11.09.2016 23:40 16,6 C 91 % 1019,5 hPa 0,0 l/m 0,0 km/h (0 Bft) N 0 15,1 C 16,6 C 0,0 km/h (0 Bft)
11.09.2016 23:35 16,6 C 91 % 1019,5 hPa 0,0 l/m 0,0 km/h (0 Bft) N 0 15,1 C 16,6 C 0,0 km/h (0 Bft)
11.09.2016 23:30 16,7 C 91 % 1019,4 hPa 0,0 l/m 0,0 km/h (0 Bft) N 0 15,2 C 16,7 C 0,0 km/h (0 Bft)
11.09.2016 23:25 16,7 C 91 % 1019,4 hPa 0,0 l/m 0,0 km/h (0 Bft) N 0 15,2 C 16,7 C 0,0 km/h (0 Bft)
11.09.2016 23:20 16,7 C 91 % 1019,4 hPa 0,0 l/m 0,0 km/h (0 Bft) N 0 15,2 C 16,7 C 0,0 km/h (0 Bft)
11.09.2016 23:15 16,8 C 91 % 1019,4 hPa 0,0 l/m 0,0 km/h (0 Bft) N 0 15,3 C 16,8 C 0,0 km/h (0 Bft)
11.09.2016 23:10 16,8 C 91 % 1019,4 hPa 0,0 l/m 0,0 km/h (0 Bft) N 0 15,3 C 16,8 C 0,0 km/h (0 Bft)
11.09.2016 23:05 16,9 C 91 % 1019,4 hPa 0,0 l/m 0,0 km/h (0 Bft) N 0 15,4 C 16,9 C 0,0 km/h (0 Bft)
11.09.2016 23:00 17,0 C 90 % 1019,4 hPa 0,0 l/m 0,0 km/h (0 Bft) N 0 15,3 C 17,0 C 0,0 km/h (0 Bft)
11.09.2016 22:55 17,1 C 90 % 1019,4 hPa 0,0 l/m 0,0 km/h (0 Bft) N 0 15,4 C 17,1 C 0,0 km/h (0 Bft)
11.09.2016 22:50 17,1 C 90 % 1019,4 hPa 0,0 l/m 0,0 km/h (0 Bft) N 0 15,4 C 17,1 C 0,0 km/h (0 Bft)
11.09.2016 22:45 17,2 C 90 % 1019,4 hPa 0,0 l/m 0,0 km/h (0 Bft) N 0 15,5 C 17,2 C 0,0 km/h (0 Bft)
11.09.2016 22:40 17,3 C 90 % 1019,3 hPa 0,0 l/m 0,0 km/h (0 Bft) N 0 15,6 C 17,3 C 0,0 km/h (0 Bft)
11.09.2016 22:35 17,4 C 90 % 1019,3 hPa 0,0 l/m 0,0 km/h (0 Bft) N 0 15,7 C 17,4 C 0,0 km/h (0 Bft)
11.09.2016 22:30 17,4 C 89 % 1019,3 hPa 0,0 l/m 0,0 km/h (0 Bft) N 0 15,6 C 17,4 C 0,0 km/h (0 Bft)
11.09.2016 22:25 17,6 C 89 % 1019,2 hPa 0,0 l/m 0,0 km/h (0 Bft) N 0 15,8 C 17,6 C 0,0 km/h (0 Bft)
11.09.2016 22:20 17,6 C 89 % 1019,2 hPa 0,0 l/m 0,0 km/h (0 Bft) N 0 15,8 C 17,6 C 0,0 km/h (0 Bft)
11.09.2016 22:15 17,6 C 89 % 1019,2 hPa 0,0 l/m 0,0 km/h (0 Bft) N 0 15,8 C 17,6 C 0,0 km/h (0 Bft)
11.09.2016 22:10 17,7 C 89 % 1019,1 hPa 0,0 l/m 0,0 km/h (0 Bft) N 0 15,9 C 17,7 C 0,0 km/h (0 Bft)
11.09.2016 22:05 17,8 C 89 % 1019,1 hPa 0,0 l/m 0,0 km/h (0 Bft) N 0 16,0 C 17,8 C 0,0 km/h (0 Bft)
11.09.2016 22:00 17,8 C 88 % 1019,1 hPa 0,0 l/m 0,0 km/h (0 Bft) N 0 15,8 C 17,8 C 0,0 km/h (0 Bft)
11.09.2016 21:55 18,0 C 88 % 1019,1 hPa 0,0 l/m 0,0 km/h (0 Bft) N 0 16,0 C 18,0 C 0,0 km/h (0 Bft)
11.09.2016 21:50 18,1 C 88 % 1019,0 hPa 0,0 l/m 0,0 km/h (0 Bft) N 0 16,1 C 18,1 C 0,0 km/h (0 Bft)
11.09.2016 21:45 18,2 C 88 % 1019,0 hPa 0,0 l/m 0,0 km/h (0 Bft) N 0 16,2 C 18,2 C 0,0 km/h (0 Bft)
11.09.2016 21:40 18,3 C 88 % 1019,0 hPa 0,0 l/m 0,0 km/h (0 Bft) N 0 16,3 C 18,3 C 0,0 km/h (0 Bft)
11.09.2016 21:35 18,3 C 87 % 1019,0 hPa 0,0 l/m 0,0 km/h (0 Bft) N 0 16,1 C 18,3 C 0,0 km/h (0 Bft)
11.09.2016 21:30 18,4 C 87 % 1019,0 hPa 0,0 l/m 0,0 km/h (0 Bft) N 0 16,2 C 18,4 C 0,0 km/h (0 Bft)
11.09.2016 21:25 18,6 C 87 % 1019,0 hPa 0,0 l/m 0,0 km/h (0 Bft) N 0 16,4 C 18,6 C 0,0 km/h (0 Bft)
11.09.2016 21:20 18,7 C 86 % 1018,9 hPa 0,0 l/m 0,0 km/h (0 Bft) N 0 16,3 C 18,7 C 0,0 km/h (0 Bft)
11.09.2016 21:15 18,9 C 86 % 1019,0 hPa 0,0 l/m 0,0 km/h (0 Bft) N 0 16,5 C 18,9 C 0,0 km/h (0 Bft)
11.09.2016 21:10 19,0 C 86 % 1018,9 hPa 0,0 l/m 0,0 km/h (0 Bft) N 0 16,6 C 19,0 C 0,0 km/h (0 Bft)
11.09.2016 21:05 19,1 C 85 % 1018,9 hPa 0,0 l/m 0,0 km/h (0 Bft) N 0 16,5 C 19,1 C 0,0 km/h (0 Bft)
11.09.2016 21:00 19,2 C 85 % 1018,8 hPa 0,0 l/m 0,0 km/h (0 Bft) N 0 16,6 C 19,2 C 0,0 km/h (0 Bft)
11.09.2016 20:55 19,3 C 85 % 1018,8 hPa 0,0 l/m 0,0 km/h (0 Bft) N 0 16,7 C 19,3 C 0,0 km/h (0 Bft)
11.09.2016 20:50 19,4 C 85 % 1018,8 hPa 0,0 l/m 0,0 km/h (0 Bft) N 0 16,8 C 19,4 C 0,0 km/h (0 Bft)
11.09.2016 20:45 19,6 C 84 % 1018,7 hPa 0,0 l/m 0,0 km/h (0 Bft) N 0 16,8 C 19,6 C 0,0 km/h (0 Bft)
11.09.2016 20:40 19,7 C 84 % 1018,7 hPa 0,0 l/m 0,0 km/h (0 Bft) N 0 16,9 C 19,7 C 0,0 km/h (0 Bft)
11.09.2016 20:35 19,8 C 83 % 1018,7 hPa 0,0 l/m 0,0 km/h (0 Bft) N 0 16,8 C 19,8 C 0,0 km/h (0 Bft)
11.09.2016 20:30 19,9 C 83 % 1018,7 hPa 0,0 l/m 0,0 km/h (0 Bft) N 0 16,9 C 19,9 C 0,0 km/h (0 Bft)
11.09.2016 20:25 20,1 C 83 % 1018,6 hPa 0,0 l/m 0,0 km/h (0 Bft) N 0 17,1 C 20,1 C 0,0 km/h (0 Bft)
11.09.2016 20:20 20,3 C 82 % 1018,6 hPa 0,0 l/m 0,0 km/h (0 Bft) N 0 17,1 C 20,3 C 0,0 km/h (0 Bft)
11.09.2016 20:15 20,4 C 81 % 1018,5 hPa 0,0 l/m 0,0 km/h (0 Bft) N 0 17,0 C 20,4 C 0,0 km/h (0 Bft)
11.09.2016 20:10 20,6 C 82 % 1018,5 hPa 0,0 l/m 0,0 km/h (0 Bft) N 0 17,4 C 20,6 C 0,0 km/h (0 Bft)
11.09.2016 20:05 20,8 C 81 % 1018,5 hPa 0,0 l/m 0,0 km/h (0 Bft) N 0 17,4 C 20,8 C 0,0 km/h (0 Bft)
11.09.2016 20:00 21,0 C 81 % 1018,4 hPa 0,0 l/m 0,0 km/h (0 Bft) N 0 17,6 C 21,0 C 0,0 km/h (0 Bft)
11.09.2016 19:55 21,2 C 80 % 1018,3 hPa 0,0 l/m 0,0 km/h (0 Bft) N 0 17,6 C 21,2 C 0,0 km/h (0 Bft)
11.09.2016 19:50 21,3 C 79 % 1018,3 hPa 0,0 l/m 0,0 km/h (0 Bft) N 0 17,5 C 21,3 C 0,0 km/h (0 Bft)
11.09.2016 19:45 21,6 C 79 % 1018,2 hPa 0,0 l/m 0,0 km/h (0 Bft) N 0 17,8 C 21,6 C 0,0 km/h (0 Bft)
11.09.2016 19:40 21,8 C 79 % 1018,0 hPa 0,0 l/m 0,0 km/h (0 Bft) N 0 18,0 C 21,8 C 0,0 km/h (0 Bft)
11.09.2016 19:35 22,1 C 78 % 1018,1 hPa 0,0 l/m 0,0 km/h (0 Bft) N 0 18,1 C 22,1 C 0,0 km/h (0 Bft)
11.09.2016 19:30 22,4 C 77 % 1018,0 hPa 0,0 l/m 0,0 km/h (0 Bft) N 0 18,2 C 22,4 C 0,0 km/h (0 Bft)
11.09.2016 19:25 22,7 C 76 % 1017,9 hPa 0,0 l/m 0,0 km/h (0 Bft) N 0 18,2 C 22,7 C 0,0 km/h (0 Bft)
11.09.2016 19:20 23,0 C 75 % 1017,9 hPa 0,0 l/m 0,0 km/h (0 Bft) N 0 18,3 C 23,0 C 0,0 km/h (0 Bft)
11.09.2016 19:15 23,3 C 74 % 1017,9 hPa 0,0 l/m 0,0 km/h (0 Bft) N 0 18,4 C 23,3 C 0,0 km/h (0 Bft)
11.09.2016 19:10 23,7 C 73 % 1017,9 hPa 0,0 l/m 0,0 km/h (0 Bft) N 0 18,6 C 23,7 C 0,0 km/h (0 Bft)
11.09.2016 19:05 24,1 C 71 % 1017,8 hPa 0,0 l/m 0,0 km/h (0 Bft) N 0 18,5 C 24,1 C 0,0 km/h (0 Bft)
11.09.2016 19:00 24,4 C 70 % 1017,8 hPa 0,0 l/m 0,0 km/h (0 Bft) N 0 18,6 C 24,4 C 0,0 km/h (0 Bft)
11.09.2016 18:55 24,8 C 68 % 1017,7 hPa 0,0 l/m 0,0 km/h (0 Bft) N 0 18,5 C 24,8 C 0,0 km/h (0 Bft)
11.09.2016 18:50 25,2 C 66 % 1017,7 hPa 0,0 l/m 0,0 km/h (0 Bft) N 0 18,4 C 25,2 C 0,0 km/h (0 Bft)
11.09.2016 18:45 25,6 C 65 % 1017,7 hPa 0,0 l/m 0,0 km/h (0 Bft) N 0 18,5 C 25,6 C 0,0 km/h (0 Bft)
11.09.2016 18:40 25,9 C 63 % 1017,6 hPa 0,0 l/m 0,0 km/h (0 Bft) N 0 18,3 C 25,9 C 0,0 km/h (0 Bft)
11.09.2016 18:35 26,3 C 61 % 1017,6 hPa 0,0 l/m 0,0 km/h (0 Bft) N 0 18,2 C 26,3 C 0,0 km/h (0 Bft)
11.09.2016 18:30 26,8 C 60 % 1017,6 hPa 0,0 l/m 0,0 km/h (0 Bft) N 0 18,4 C 26,8 C 0,0 km/h (0 Bft)
11.09.2016 18:25 27,3 C 59 % 1017,6 hPa 0,0 l/m 0,0 km/h (0 Bft) O 90 18,6 C 27,3 C 1,6 km/h (1 Bft)
11.09.2016 18:20 27,8 C 57 % 1017,6 hPa 0,0 l/m 0,0 km/h (0 Bft) O 90 18,5 C 27,8 C 1,6 km/h (1 Bft)
11.09.2016 18:15 28,3 C 55 % 1017,6 hPa 0,0 l/m 0,0 km/h (0 Bft) O 90 18,4 C 28,3 C 1,6 km/h (1 Bft)
11.09.2016 18:10 28,5 C 55 % 1017,6 hPa 0,0 l/m 0,0 km/h (0 Bft) O 90 18,6 C 28,5 C 1,6 km/h (1 Bft)
11.09.2016 18:05 28,9 C 54 % 1017,6 hPa 0,0 l/m 0,0 km/h (0 Bft) O 90 18,6 C 28,9 C 1,6 km/h (1 Bft)
11.09.2016 18:00 29,4 C 52 % 1017,7 hPa 0,0 l/m 0,0 km/h (0 Bft) O 90 18,5 C 29,4 C 1,6 km/h (1 Bft)
11.09.2016 17:55 29,8 C 48 % 1017,7 hPa 0,0 l/m 0,0 km/h (0 Bft) O 90 17,6 C 29,8 C 3,2 km/h (1 Bft)
11.09.2016 17:50 29,9 C 46 % 1017,7 hPa 0,0 l/m 0,0 km/h (0 Bft) O 90 17,0 C 29,9 C 1,6 km/h (1 Bft)
11.09.2016 17:45 30,0 C 44 % 1017,8 hPa 0,0 l/m 1,6 km/h (1 Bft) O 90 16,4 C 30,0 C 3,2 km/h (1 Bft)
11.09.2016 17:40 30,2 C 48 % 1017,8 hPa 0,0 l/m 0,0 km/h (0 Bft) O-SO 112 17,9 C 30,2 C 1,6 km/h (1 Bft)
11.09.2016 17:35 29,9 C 45 % 1017,8 hPa 0,0 l/m 0,0 km/h (0 Bft) O-SO 112 16,7 C 29,9 C 1,6 km/h (1 Bft)
11.09.2016 17:30 29,7 C 45 % 1017,7 hPa 0,0 l/m 0,0 km/h (0 Bft) O-SO 112 16,5 C 29,7 C 3,2 km/h (1 Bft)
11.09.2016 17:25 29,5 C 45 % 1017,7 hPa 0,0 l/m 0,0 km/h (0 Bft) O 90 16,3 C 29,5 C 1,6 km/h (1 Bft)
11.09.2016 17:20 29,4 C 46 % 1017,8 hPa 0,0 l/m 0,0 km/h (0 Bft) O 90 16,5 C 29,4 C 3,2 km/h (1 Bft)
11.09.2016 17:15 29,1 C 47 % 1017,8 hPa 0,0 l/m 1,6 km/h (1 Bft) O 90 16,6 C 29,1 C 3,2 km/h (1 Bft)
11.09.2016 17:10 28,8 C 47 % 1017,8 hPa 0,0 l/m 0,0 km/h (0 Bft) O 90 16,3 C 28,8 C 3,2 km/h (1 Bft)
11.09.2016 17:05 28,8 C 47 % 1017,7 hPa 0,0 l/m 0,0 km/h (0 Bft) N 0 16,3 C 28,8 C 0,0 km/h (0 Bft)
11.09.2016 17:00 29,1 C 45 % 1017,7 hPa 0,0 l/m 0,0 km/h (0 Bft) O 90 15,9 C 29,1 C 1,6 km/h (1 Bft)
11.09.2016 16:55 29,2 C 45 % 1017,7 hPa 0,0 l/m 1,6 km/h (1 Bft) O 90 16,0 C 29,2 C 3,2 km/h (1 Bft)
11.09.2016 16:50 29,1 C 46 % 1017,7 hPa 0,0 l/m 1,6 km/h (1 Bft) SO 135 16,3 C 29,1 C 3,2 km/h (1 Bft)
11.09.2016 16:45 29,1 C 46 % 1017,7 hPa 0,0 l/m 1,6 km/h (1 Bft) O 90 16,3 C 29,1 C 4,8 km/h (1 Bft)
11.09.2016 16:40 29,2 C 45 % 1017,7 hPa 0,0 l/m 1,6 km/h (1 Bft) O 90 16,0 C 29,2 C 4,8 km/h (1 Bft)
11.09.2016 16:35 29,2 C 46 % 1017,7 hPa 0,0 l/m 1,6 km/h (1 Bft) O 90 16,4 C 29,2 C 1,6 km/h (1 Bft)
11.09.2016 16:30 29,0 C 46 % 1017,7 hPa 0,0 l/m 1,6 km/h (1 Bft) O 90 16,2 C 29,0 C 6,4 km/h (2 Bft)
11.09.2016 16:25 28,9 C 46 % 1017,7 hPa 0,0 l/m 3,2 km/h (1 Bft) O 90 16,1 C 28,9 C 4,8 km/h (1 Bft)
11.09.2016 16:20 29,0 C 46 % 1017,7 hPa 0,0 l/m 3,2 km/h (1 Bft) NO 45 16,2 C 29,0 C 6,4 km/h (2 Bft)
11.09.2016 16:15 29,0 C 46 % 1017,7 hPa 0,0 l/m 3,2 km/h (1 Bft) O-NO 67 16,2 C 29,0 C 9,7 km/h (2 Bft)
11.09.2016 16:10 29,0 C 46 % 1017,7 hPa 0,0 l/m 4,8 km/h (1 Bft) O 90 16,2 C 29,0 C 9,7 km/h (2 Bft)
11.09.2016 16:05 29,1 C 47 % 1017,7 hPa 0,0 l/m 3,2 km/h (1 Bft) O 90 16,6 C 29,1 C 9,7 km/h (2 Bft)
11.09.2016 16:00 28,9 C 48 % 1017,6 hPa 0,0 l/m 3,1 km/h (1 Bft) O 90 16,8 C 28,9 C 9,7 km/h (2 Bft)
11.09.2016 15:55 28,7 C 49 % 1017,6 hPa 0,0 l/m 0,0 km/h (0 Bft) O 90 16,9 C 28,7 C 3,2 km/h (1 Bft)
11.09.2016 15:50 28,6 C 48 % 1017,7 hPa 0,0 l/m 1,6 km/h (1 Bft) W 270 16,5 C 28,6 C 3,2 km/h (1 Bft)
11.09.2016 15:45 28,6 C 48 % 1017,7 hPa 0,0 l/m 1,6 km/h (1 Bft) W 270 16,5 C 28,6 C 3,2 km/h (1 Bft)
11.09.2016 15:40 28,6 C 48 % 1017,7 hPa 0,0 l/m 0,0 km/h (0 Bft) N-NO 22 16,5 C 28,6 C 3,2 km/h (1 Bft)
11.09.2016 15:35 28,6 C 48 % 1017,7 hPa 0,0 l/m 0,0 km/h (0 Bft) NO 45 16,5 C 28,6 C 3,2 km/h (1 Bft)
11.09.2016 15:30 28,4 C 49 % 1017,7 hPa 0,0 l/m 0,0 km/h (0 Bft) NO 45 16,6 C 28,4 C 3,2 km/h (1 Bft)
11.09.2016 15:25 28,3 C 50 % 1017,8 hPa 0,0 l/m 0,0 km/h (0 Bft) O 90 16,9 C 28,3 C 1,6 km/h (1 Bft)
11.09.2016 15:20 28,4 C 50 % 1017,8 hPa 0,0 l/m 0,0 km/h (0 Bft) O 90 17,0 C 28,4 C 1,6 km/h (1 Bft)
11.09.2016 15:15 28,7 C 49 % 1017,8 hPa 0,0 l/m 0,0 km/h (0 Bft) O 90 16,9 C 28,7 C 1,6 km/h (1 Bft)
11.09.2016 15:10 28,9 C 48 % 1017,8 hPa 0,0 l/m 1,6 km/h (1 Bft) O 90 16,8 C 28,9 C 4,8 km/h (1 Bft)
11.09.2016 15:05 28,9 C 48 % 1017,8 hPa 0,0 l/m 3,2 km/h (1 Bft) O 90 16,8 C 28,9 C 4,8 km/h (1 Bft)
11.09.2016 15:00 28,9 C 49 % 1017,8 hPa 0,0 l/m 3,1 km/h (1 Bft) SO 135 17,1 C 28,9 C 3,2 km/h (1 Bft)
11.09.2016 14:55 28,9 C 48 % 1017,8 hPa 0,0 l/m 1,6 km/h (1 Bft) SO 135 16,8 C 28,9 C 3,2 km/h (1 Bft)
11.09.2016 14:50 28,8 C 49 % 1017,8 hPa 0,0 l/m 1,6 km/h (1 Bft) O 90 17,0 C 28,8 C 8,0 km/h (2 Bft)
11.09.2016 14:45 28,8 C 50 % 1017,8 hPa 0,0 l/m 3,2 km/h (1 Bft) O-NO 67 17,3 C 28,8 C 8,0 km/h (2 Bft)
11.09.2016 14:40 28,8 C 50 % 1017,7 hPa 0,0 l/m 1,6 km/h (1 Bft) O 90 17,3 C 28,8 C 9,7 km/h (2 Bft)
11.09.2016 14:35 28,6 C 50 % 1017,8 hPa 0,0 l/m 1,6 km/h (1 Bft) O 90 17,1 C 28,6 C 3,2 km/h (1 Bft)
11.09.2016 14:30 28,6 C 49 % 1017,8 hPa 0,0 l/m 1,6 km/h (1 Bft) O 90 16,8 C 28,6 C 4,8 km/h (1 Bft)
11.09.2016 14:25 28,5 C 49 % 1017,7 hPa 0,0 l/m 1,6 km/h (1 Bft) O 90 16,7 C 28,5 C 6,4 km/h (2 Bft)
11.09.2016 14:20 28,2 C 50 % 1017,8 hPa 0,0 l/m 1,6 km/h (1 Bft) O 90 16,8 C 28,2 C 3,2 km/h (1 Bft)
11.09.2016 14:15 27,9 C 51 % 1017,8 hPa 0,0 l/m 1,6 km/h (1 Bft) O 90 16,8 C 27,9 C 3,2 km/h (1 Bft)
11.09.2016 14:10 27,8 C 50 % 1017,8 hPa 0,0 l/m 0,0 km/h (0 Bft) O 90 16,4 C 27,8 C 3,2 km/h (1 Bft)
11.09.2016 14:05 27,8 C 51 % 1017,9 hPa 0,0 l/m 1,6 km/h (1 Bft) O 90 16,7 C 27,8 C 4,8 km/h (1 Bft)
11.09.2016 14:00 27,9 C 53 % 1017,9 hPa 0,0 l/m 3,1 km/h (1 Bft) SO 135 17,4 C 27,9 C 6,4 km/h (2 Bft)
11.09.2016 13:55 27,9 C 52 % 1017,9 hPa 0,0 l/m 1,6 km/h (1 Bft) O 90 17,1 C 27,9 C 4,8 km/h (1 Bft)
11.09.2016 13:50 28,1 C 51 % 1018,0 hPa 0,0 l/m 1,6 km/h (1 Bft) O 90 17,0 C 28,1 C 4,8 km/h (1 Bft)
11.09.2016 13:45 28,1 C 50 % 1018,0 hPa 0,0 l/m 3,2 km/h (1 Bft) O 90 16,7 C 28,1 C 6,4 km/h (2 Bft)
11.09.2016 13:40 28,1 C 50 % 1018,0 hPa 0,0 l/m 4,8 km/h (1 Bft) O 90 16,7 C 28,1 C 12,9 km/h (3 Bft)
11.09.2016 13:35 28,0 C 51 % 1017,9 hPa 0,0 l/m 1,6 km/h (1 Bft) N-NO 22 16,9 C 28,0 C 3,2 km/h (1 Bft)
11.09.2016 13:30 28,1 C 51 % 1018,0 hPa 0,0 l/m 3,2 km/h (1 Bft) O 90 17,0 C 28,1 C 8,0 km/h (2 Bft)
11.09.2016 13:25 27,8 C 50 % 1018,0 hPa 0,0 l/m 3,2 km/h (1 Bft) O-NO 67 16,4 C 27,8 C 9,7 km/h (2 Bft)
11.09.2016 13:20 27,7 C 52 % 1017,9 hPa 0,0 l/m 3,2 km/h (1 Bft) O 90 16,9 C 27,7 C 6,4 km/h (2 Bft)
11.09.2016 13:15 27,6 C 53 % 1018,0 hPa 0,0 l/m 1,6 km/h (1 Bft) O-NO 67 17,1 C 27,6 C 3,2 km/h (1 Bft)
11.09.2016 13:10 27,5 C 53 % 1018,0 hPa 0,0 l/m 3,2 km/h (1 Bft) O-NO 67 17,0 C 27,5 C 6,4 km/h (2 Bft)
11.09.2016 13:05 27,3 C 53 % 1018,0 hPa 0,0 l/m 3,2 km/h (1 Bft) O 90 16,9 C 27,3 C 8,0 km/h (2 Bft)
11.09.2016 13:00 27,3 C 55 % 1017,9 hPa 0,0 l/m 6,1 km/h (2 Bft) O-NO 67 17,4 C 27,3 C 6,4 km/h (2 Bft)
11.09.2016 12:55 27,2 C 56 % 1017,9 hPa 0,0 l/m 3,2 km/h (1 Bft) O-NO 67 17,6 C 27,2 C 11,3 km/h (2 Bft)
11.09.2016 12:50 27,0 C 57 % 1017,9 hPa 0,0 l/m 3,2 km/h (1 Bft) O-NO 67 17,7 C 27,0 C 6,4 km/h (2 Bft)
11.09.2016 12:45 26,9 C 57 % 1017,9 hPa 0,0 l/m 3,2 km/h (1 Bft) O-NO 67 17,6 C 26,9 C 8,0 km/h (2 Bft)
11.09.2016 12:40 26,8 C 58 % 1017,9 hPa 0,0 l/m 1,6 km/h (1 Bft) O 90 17,8 C 26,8 C 4,8 km/h (1 Bft)
11.09.2016 12:35 26,7 C 58 % 1017,9 hPa 0,0 l/m 1,6 km/h (1 Bft) O-NO 67 17,7 C 26,7 C 4,8 km/h (1 Bft)
11.09.2016 12:30 26,5 C 59 % 1017,8 hPa 0,0 l/m 1,6 km/h (1 Bft) O 90 17,8 C 26,5 C 8,0 km/h (2 Bft)
11.09.2016 12:25 26,3 C 60 % 1017,8 hPa 0,0 l/m 0,0 km/h (0 Bft) SO 135 17,9 C 26,3 C 1,6 km/h (1 Bft)
11.09.2016 12:20 26,4 C 59 % 1017,9 hPa 0,0 l/m 3,2 km/h (1 Bft) O-NO 67 17,7 C 26,4 C 8,0 km/h (2 Bft)
11.09.2016 12:15 26,4 C 59 % 1017,8 hPa 0,0 l/m 1,6 km/h (1 Bft) O 90 17,7 C 26,4 C 4,8 km/h (1 Bft)
11.09.2016 12:10 26,3 C 61 % 1017,9 hPa 0,0 l/m 1,6 km/h (1 Bft) O 90 18,2 C 26,3 C 3,2 km/h (1 Bft)
11.09.2016 12:05 26,1 C 61 % 1017,9 hPa 0,0 l/m 1,6 km/h (1 Bft) O-SO 112 18,0 C 26,1 C 3,2 km/h (1 Bft)
11.09.2016 12:00 25,9 C 61 % 1017,9 hPa 0,0 l/m 6,1 km/h (2 Bft) O-SO 112 17,8 C 25,9 C 8,0 km/h (2 Bft)
11.09.2016 11:55 25,9 C 62 % 1017,9 hPa 0,0 l/m 1,6 km/h (1 Bft) O 90 18,0 C 25,9 C 4,8 km/h (1 Bft)
11.09.2016 11:50 25,7 C 62 % 1018,0 hPa 0,0 l/m 1,6 km/h (1 Bft) O-SO 112 17,9 C 25,7 C 8,0 km/h (2 Bft)
11.09.2016 11:45 25,5 C 62 % 1017,9 hPa 0,0 l/m 3,2 km/h (1 Bft) O 90 17,7 C 25,5 C 8,0 km/h (2 Bft)
11.09.2016 11:40 25,4 C 63 % 1017,9 hPa 0,0 l/m 1,6 km/h (1 Bft) O 90 17,8 C 25,4 C 6,4 km/h (2 Bft)
11.09.2016 11:35 25,3 C 63 % 1018,0 hPa 0,0 l/m 1,6 km/h (1 Bft) O-SO 112 17,7 C 25,3 C 4,8 km/h (1 Bft)
11.09.2016 11:30 25,2 C 64 % 1018,0 hPa 0,0 l/m 1,6 km/h (1 Bft) O 90 17,9 C 25,2 C 4,8 km/h (1 Bft)
11.09.2016 11:25 25,1 C 64 % 1018,0 hPa 0,0 l/m 3,2 km/h (1 Bft) O 90 17,8 C 25,1 C 8,0 km/h (2 Bft)
11.09.2016 11:20 24,9 C 64 % 1018,0 hPa 0,0 l/m 3,2 km/h (1 Bft) O 90 17,6 C 24,9 C 6,4 km/h (2 Bft)
11.09.2016 11:15 24,9 C 64 % 1018,0 hPa 0,0 l/m 1,6 km/h (1 Bft) O 90 17,6 C 24,9 C 6,4 km/h (2 Bft)
11.09.2016 11:10 24,8 C 63 % 1018,0 hPa 0,0 l/m 3,2 km/h (1 Bft) O-SO 112 17,3 C 24,8 C 8,0 km/h (2 Bft)
11.09.2016 11:05 24,8 C 63 % 1017,9 hPa 0,0 l/m 3,2 km/h (1 Bft) O 90 17,3 C 24,8 C 8,0 km/h (2 Bft)
11.09.2016 11:00 24,6 C 63 % 1018,0 hPa 0,0 l/m 9,2 km/h (2 Bft) O-NO 67 17,1 C 23,9 C 11,3 km/h (2 Bft)
11.09.2016 10:55 24,4 C 65 % 1017,9 hPa 0,0 l/m 3,2 km/h (1 Bft) O 90 17,4 C 24,4 C 8,0 km/h (2 Bft)
11.09.2016 10:50 24,2 C 67 % 1017,8 hPa 0,0 l/m 3,2 km/h (1 Bft) O 90 17,7 C 24,2 C 11,3 km/h (2 Bft)
11.09.2016 10:45 24,2 C 66 % 1017,8 hPa 0,0 l/m 4,8 km/h (1 Bft) O 90 17,4 C 24,2 C 9,7 km/h (2 Bft)
11.09.2016 10:40 24,1 C 66 % 1017,8 hPa 0,0 l/m 4,8 km/h (1 Bft) O 90 17,3 C 24,1 C 11,3 km/h (2 Bft)
11.09.2016 10:35 23,9 C 67 % 1017,8 hPa 0,0 l/m 3,2 km/h (1 Bft) O 90 17,4 C 23,9 C 6,4 km/h (2 Bft)
11.09.2016 10:30 23,6 C 69 % 1017,8 hPa 0,0 l/m 3,2 km/h (1 Bft) O 90 17,6 C 23,6 C 8,0 km/h (2 Bft)
11.09.2016 10:25 23,3 C 69 % 1017,8 hPa 0,0 l/m 3,2 km/h (1 Bft) O 90 17,3 C 23,3 C 8,0 km/h (2 Bft)
11.09.2016 10:20 23,1 C 70 % 1017,7 hPa 0,0 l/m 3,2 km/h (1 Bft) O 90 17,3 C 23,1 C 9,7 km/h (2 Bft)
11.09.2016 10:15 22,7 C 71 % 1017,7 hPa 0,0 l/m 3,2 km/h (1 Bft) O 90 17,2 C 22,7 C 9,7 km/h (2 Bft)
11.09.2016 10:10 22,2 C 73 % 1017,7 hPa 0,0 l/m 0,0 km/h (0 Bft) O 90 17,1 C 22,2 C 1,6 km/h (1 Bft)
11.09.2016 10:05 21,6 C 76 % 1017,6 hPa 0,0 l/m 0,0 km/h (0 Bft) O 90 17,2 C 21,6 C 1,6 km/h (1 Bft)
11.09.2016 10:00 20,5 C 80 % 1017,6 hPa 0,0 l/m 0,0 km/h (0 Bft) O-NO 67 16,9 C 20,5 C 1,6 km/h (1 Bft)
11.09.2016 09:55 19,5 C 88 % 1017,5 hPa 0,0 l/m 0,0 km/h (0 Bft) N 0 17,5 C 19,5 C 0,0 km/h (0 Bft)
11.09.2016 09:50 19,1 C 93 % 1017,5 hPa 0,0 l/m 0,0 km/h (0 Bft) N 0 17,9 C 19,1 C 0,0 km/h (0 Bft)
11.09.2016 09:45 18,7 C 93 % 1017,5 hPa 0,0 l/m 0,0 km/h (0 Bft) N 0 17,5 C 18,7 C 0,0 km/h (0 Bft)
11.09.2016 09:40 18,4 C 94 % 1017,5 hPa 0,0 l/m 0,0 km/h (0 Bft) N 0 17,4 C 18,4 C 0,0 km/h (0 Bft)
11.09.2016 09:35 18,2 C 94 % 1017,4 hPa 0,0 l/m 0,0 km/h (0 Bft) N 0 17,2 C 18,2 C 0,0 km/h (0 Bft)
11.09.2016 09:30 18,0 C 95 % 1017,4 hPa 0,0 l/m 0,0 km/h (0 Bft) N 0 17,2 C 18,0 C 0,0 km/h (0 Bft)
11.09.2016 09:25 17,8 C 95 % 1017,3 hPa 0,0 l/m 0,0 km/h (0 Bft) N 0 17,0 C 17,8 C 0,0 km/h (0 Bft)
11.09.2016 09:20 17,6 C 96 % 1017,3 hPa 0,0 l/m 0,0 km/h (0 Bft) N 0 17,0 C 17,6 C 0,0 km/h (0 Bft)
11.09.2016 09:15 17,4 C 96 % 1017,3 hPa 0,0 l/m 0,0 km/h (0 Bft) N 0 16,8 C 17,4 C 0,0 km/h (0 Bft)
11.09.2016 09:10 17,2 C 96 % 1017,2 hPa 0,0 l/m 0,0 km/h (0 Bft) N 0 16,6 C 17,2 C 0,0 km/h (0 Bft)
11.09.2016 09:05 17,1 C 96 % 1017,1 hPa 0,0 l/m 0,0 km/h (0 Bft) N 0 16,5 C 17,1 C 0,0 km/h (0 Bft)
11.09.2016 09:00 16,9 C 96 % 1017,1 hPa 0,0 l/m 0,0 km/h (0 Bft) N 0 16,3 C 16,9 C 0,0 km/h (0 Bft)
11.09.2016 08:55 16,8 C 97 % 1017,0 hPa 0,0 l/m 0,0 km/h (0 Bft) N 0 16,3 C 16,8 C 0,0 km/h (0 Bft)
11.09.2016 08:50 16,6 C 97 % 1017,1 hPa 0,0 l/m 0,0 km/h (0 Bft) N 0 16,1 C 16,6 C 0,0 km/h (0 Bft)
11.09.2016 08:45 16,4 C 97 % 1017,0 hPa 0,0 l/m 0,0 km/h (0 Bft) N 0 15,9 C 16,4 C 0,0 km/h (0 Bft)
11.09.2016 08:40 16,3 C 97 % 1017,0 hPa 0,0 l/m 0,0 km/h (0 Bft) N 0 15,8 C 16,3 C 0,0 km/h (0 Bft)
11.09.2016 08:35 16,2 C 97 % 1017,0 hPa 0,0 l/m 0,0 km/h (0 Bft) N 0 15,7 C 16,2 C 0,0 km/h (0 Bft)
11.09.2016 08:30 16,1 C 97 % 1017,0 hPa 0,0 l/m 0,0 km/h (0 Bft) N 0 15,6 C 16,1 C 0,0 km/h (0 Bft)
11.09.2016 08:25 16,1 C 97 % 1016,9 hPa 0,0 l/m 0,0 km/h (0 Bft) N 0 15,6 C 16,1 C 0,0 km/h (0 Bft)
11.09.2016 08:20 16,0 C 97 % 1016,9 hPa 0,0 l/m 0,0 km/h (0 Bft) N 0 15,5 C 16,0 C 0,0 km/h (0 Bft)
11.09.2016 08:15 15,9 C 97 % 1016,8 hPa 0,0 l/m 0,0 km/h (0 Bft) N 0 15,4 C 15,9 C 0,0 km/h (0 Bft)
11.09.2016 08:10 15,9 C 97 % 1016,7 hPa 0,0 l/m 0,0 km/h (0 Bft) N 0 15,4 C 15,9 C 0,0 km/h (0 Bft)
11.09.2016 08:05 15,8 C 97 % 1016,7 hPa 0,0 l/m 0,0 km/h (0 Bft) N 0 15,3 C 15,8 C 0,0 km/h (0 Bft)
11.09.2016 08:00 15,8 C 97 % 1016,7 hPa 0,0 l/m 0,0 km/h (0 Bft) N 0 15,3 C 15,8 C 0,0 km/h (0 Bft)
11.09.2016 07:55 15,7 C 97 % 1016,6 hPa 0,0 l/m 0,0 km/h (0 Bft) N 0 15,2 C 15,7 C 0,0 km/h (0 Bft)
11.09.2016 07:50 15,6 C 97 % 1016,6 hPa 0,0 l/m 0,0 km/h (0 Bft) N 0 15,1 C 15,6 C 0,0 km/h (0 Bft)
11.09.2016 07:45 15,5 C 97 % 1016,6 hPa 0,0 l/m 0,0 km/h (0 Bft) N 0 15,0 C 15,5 C 0,0 km/h (0 Bft)
11.09.2016 07:40 15,4 C 97 % 1016,6 hPa 0,0 l/m 0,0 km/h (0 Bft) N 0 14,9 C 15,4 C 0,0 km/h (0 Bft)
11.09.2016 07:35 15,3 C 97 % 1016,5 hPa 0,0 l/m 0,0 km/h (0 Bft) N 0 14,8 C 15,3 C 0,0 km/h (0 Bft)
11.09.2016 07:30 15,3 C 97 % 1016,6 hPa 0,0 l/m 0,0 km/h (0 Bft) N 0 14,8 C 15,3 C 0,0 km/h (0 Bft)
11.09.2016 07:25 15,2 C 97 % 1016,5 hPa 0,0 l/m 0,0 km/h (0 Bft) N 0 14,7 C 15,2 C 0,0 km/h (0 Bft)
11.09.2016 07:20 15,2 C 97 % 1016,5 hPa 0,0 l/m 0,0 km/h (0 Bft) N 0 14,7 C 15,2 C 0,0 km/h (0 Bft)
11.09.2016 07:15 15,2 C 96 % 1016,4 hPa 0,0 l/m 0,0 km/h (0 Bft) N 0 14,6 C 15,2 C 0,0 km/h (0 Bft)
11.09.2016 07:10 15,1 C 97 % 1016,4 hPa 0,0 l/m 0,0 km/h (0 Bft) N 0 14,6 C 15,1 C 0,0 km/h (0 Bft)
11.09.2016 07:05 15,0 C 96 % 1016,2 hPa 0,0 l/m 0,0 km/h (0 Bft) N 0 14,4 C 15,0 C 0,0 km/h (0 Bft)
11.09.2016 07:00 14,9 C 96 % 1016,2 hPa 0,0 l/m 0,0 km/h (0 Bft) N 0 14,3 C 14,9 C 0,0 km/h (0 Bft)
11.09.2016 06:55 14,9 C 96 % 1016,1 hPa 0,0 l/m 0,0 km/h (0 Bft) N 0 14,3 C 14,9 C 0,0 km/h (0 Bft)
11.09.2016 06:50 14,9 C 96 % 1016,1 hPa 0,0 l/m 0,0 km/h (0 Bft) N 0 14,3 C 14,9 C 0,0 km/h (0 Bft)
11.09.2016 06:45 14,9 C 96 % 1016,1 hPa 0,0 l/m 0,0 km/h (0 Bft) N 0 14,3 C 14,9 C 0,0 km/h (0 Bft)
11.09.2016 06:40 14,9 C 96 % 1016,1 hPa 0,0 l/m 0,0 km/h (0 Bft) N 0 14,3 C 14,9 C 0,0 km/h (0 Bft)
11.09.2016 06:35 14,9 C 96 % 1016,1 hPa 0,0 l/m 0,0 km/h (0 Bft) N 0 14,3 C 14,9 C 0,0 km/h (0 Bft)
11.09.2016 06:30 14,9 C 96 % 1016,0 hPa 0,0 l/m 0,0 km/h (0 Bft) N 0 14,3 C 14,9 C 0,0 km/h (0 Bft)
11.09.2016 06:25 15,0 C 96 % 1015,9 hPa 0,0 l/m 0,0 km/h (0 Bft) N 0 14,4 C 15,0 C 0,0 km/h (0 Bft)
11.09.2016 06:20 15,1 C 96 % 1015,9 hPa 0,0 l/m 0,0 km/h (0 Bft) N 0 14,5 C 15,1 C 0,0 km/h (0 Bft)
11.09.2016 06:15 15,1 C 96 % 1015,9 hPa 0,0 l/m 0,0 km/h (0 Bft) N 0 14,5 C 15,1 C 0,0 km/h (0 Bft)
11.09.2016 06:10 15,1 C 96 % 1015,8 hPa 0,0 l/m 0,0 km/h (0 Bft) N 0 14,5 C 15,1 C 0,0 km/h (0 Bft)
11.09.2016 06:05 15,1 C 96 % 1015,8 hPa 0,0 l/m 0,0 km/h (0 Bft) N 0 14,5 C 15,1 C 0,0 km/h (0 Bft)
11.09.2016 06:00 15,1 C 96 % 1015,8 hPa 0,0 l/m 0,0 km/h (0 Bft) N 0 14,5 C 15,1 C 0,0 km/h (0 Bft)
11.09.2016 05:55 15,1 C 96 % 1015,8 hPa 0,0 l/m 0,0 km/h (0 Bft) N 0 14,5 C 15,1 C 0,0 km/h (0 Bft)
11.09.2016 05:50 15,1 C 96 % 1015,8 hPa 0,0 l/m 0,0 km/h (0 Bft) N 0 14,5 C 15,1 C 0,0 km/h (0 Bft)
11.09.2016 05:45 15,1 C 96 % 1015,7 hPa 0,0 l/m 0,0 km/h (0 Bft) N 0 14,5 C 15,1 C 0,0 km/h (0 Bft)
11.09.2016 05:40 15,1 C 96 % 1015,7 hPa 0,0 l/m 0,0 km/h (0 Bft) N 0 14,5 C 15,1 C 0,0 km/h (0 Bft)
11.09.2016 05:35 15,1 C 96 % 1015,7 hPa 0,0 l/m 0,0 km/h (0 Bft) N 0 14,5 C 15,1 C 0,0 km/h (0 Bft)
11.09.2016 05:30 15,1 C 96 % 1015,7 hPa 0,0 l/m 0,0 km/h (0 Bft) N 0 14,5 C 15,1 C 0,0 km/h (0 Bft)
11.09.2016 05:25 15,1 C 96 % 1015,7 hPa 0,0 l/m 0,0 km/h (0 Bft) N 0 14,5 C 15,1 C 0,0 km/h (0 Bft)
11.09.2016 05:20 15,1 C 96 % 1015,7 hPa 0,0 l/m 0,0 km/h (0 Bft) N 0 14,5 C 15,1 C 0,0 km/h (0 Bft)
11.09.2016 05:15 15,0 C 96 % 1015,7 hPa 0,0 l/m 0,0 km/h (0 Bft) N 0 14,4 C 15,0 C 0,0 km/h (0 Bft)
11.09.2016 05:10 15,0 C 96 % 1015,8 hPa 0,0 l/m 0,0 km/h (0 Bft) N 0 14,4 C 15,0 C 0,0 km/h (0 Bft)
11.09.2016 05:05 15,0 C 96 % 1015,8 hPa 0,0 l/m 0,0 km/h (0 Bft) N 0 14,4 C 15,0 C 0,0 km/h (0 Bft)
11.09.2016 05:00 15,0 C 96 % 1015,8 hPa 0,0 l/m 0,0 km/h (0 Bft) N 0 14,4 C 15,0 C 0,0 km/h (0 Bft)
11.09.2016 04:55 15,0 C 96 % 1015,7 hPa 0,0 l/m 0,0 km/h (0 Bft) N 0 14,4 C 15,0 C 0,0 km/h (0 Bft)
11.09.2016 04:50 15,1 C 96 % 1015,7 hPa 0,0 l/m 0,0 km/h (0 Bft) N 0 14,5 C 15,1 C 0,0 km/h (0 Bft)
11.09.2016 04:45 15,1 C 96 % 1015,7 hPa 0,0 l/m 0,0 km/h (0 Bft) N 0 14,5 C 15,1 C 0,0 km/h (0 Bft)
11.09.2016 04:40 15,1 C 96 % 1015,7 hPa 0,0 l/m 0,0 km/h (0 Bft) N 0 14,5 C 15,1 C 0,0 km/h (0 Bft)
11.09.2016 04:35 15,1 C 96 % 1015,7 hPa 0,0 l/m 0,0 km/h (0 Bft) N 0 14,5 C 15,1 C 0,0 km/h (0 Bft)
11.09.2016 04:30 15,2 C 96 % 1015,8 hPa 0,0 l/m 0,0 km/h (0 Bft) N 0 14,6 C 15,2 C 0,0 km/h (0 Bft)
11.09.2016 04:25 15,3 C 96 % 1015,8 hPa 0,0 l/m 0,0 km/h (0 Bft) N 0 14,7 C 15,3 C 0,0 km/h (0 Bft)
11.09.2016 04:20 15,3 C 96 % 1015,8 hPa 0,0 l/m 0,0 km/h (0 Bft) N 0 14,7 C 15,3 C 0,0 km/h (0 Bft)
11.09.2016 04:15 15,3 C 96 % 1015,8 hPa 0,0 l/m 0,0 km/h (0 Bft) N 0 14,7 C 15,3 C 0,0 km/h (0 Bft)
11.09.2016 04:10 15,3 C 96 % 1015,7 hPa 0,0 l/m 0,0 km/h (0 Bft) N 0 14,7 C 15,3 C 0,0 km/h (0 Bft)
11.09.2016 04:05 15,3 C 96 % 1015,7 hPa 0,0 l/m 0,0 km/h (0 Bft) N 0 14,7 C 15,3 C 0,0 km/h (0 Bft)
11.09.2016 04:00 15,3 C 96 % 1015,7 hPa 0,0 l/m 0,0 km/h (0 Bft) N 0 14,7 C 15,3 C 0,0 km/h (0 Bft)
11.09.2016 03:55 15,3 C 96 % 1015,7 hPa 0,0 l/m 0,0 km/h (0 Bft) N 0 14,7 C 15,3 C 0,0 km/h (0 Bft)
11.09.2016 03:50 15,3 C 96 % 1015,8 hPa 0,0 l/m 0,0 km/h (0 Bft) N 0 14,7 C 15,3 C 0,0 km/h (0 Bft)
11.09.2016 03:45 15,4 C 96 % 1015,7 hPa 0,0 l/m 0,0 km/h (0 Bft) N 0 14,8 C 15,4 C 0,0 km/h (0 Bft)
11.09.2016 03:40 15,4 C 95 % 1015,7 hPa 0,0 l/m 0,0 km/h (0 Bft) N 0 14,6 C 15,4 C 0,0 km/h (0 Bft)
11.09.2016 03:35 15,4 C 95 % 1015,7 hPa 0,0 l/m 0,0 km/h (0 Bft) N 0 14,6 C 15,4 C 0,0 km/h (0 Bft)
11.09.2016 03:30 15,5 C 95 % 1015,7 hPa 0,0 l/m 0,0 km/h (0 Bft) N 0 14,7 C 15,5 C 0,0 km/h (0 Bft)
11.09.2016 03:25 15,6 C 95 % 1015,6 hPa 0,0 l/m 0,0 km/h (0 Bft) N 0 14,8 C 15,6 C 0,0 km/h (0 Bft)
11.09.2016 03:20 15,6 C 95 % 1015,7 hPa 0,0 l/m 0,0 km/h (0 Bft) N 0 14,8 C 15,6 C 0,0 km/h (0 Bft)
11.09.2016 03:15 15,7 C 95 % 1015,7 hPa 0,0 l/m 0,0 km/h (0 Bft) N 0 14,9 C 15,7 C 0,0 km/h (0 Bft)
11.09.2016 03:10 15,8 C 95 % 1015,7 hPa 0,0 l/m 0,0 km/h (0 Bft) N 0 15,0 C 15,8 C 0,0 km/h (0 Bft)
11.09.2016 03:05 15,8 C 95 % 1015,7 hPa 0,0 l/m 0,0 km/h (0 Bft) N 0 15,0 C 15,8 C 0,0 km/h (0 Bft)
11.09.2016 03:00 15,8 C 95 % 1015,6 hPa 0,0 l/m 0,0 km/h (0 Bft) N 0 15,0 C 15,8 C 0,0 km/h (0 Bft)
11.09.2016 02:55 15,9 C 95 % 1015,7 hPa 0,0 l/m 0,0 km/h (0 Bft) N 0 15,1 C 15,9 C 0,0 km/h (0 Bft)
11.09.2016 02:50 15,9 C 95 % 1015,7 hPa 0,0 l/m 0,0 km/h (0 Bft) N 0 15,1 C 15,9 C 0,0 km/h (0 Bft)
11.09.2016 02:45 15,9 C 95 % 1015,6 hPa 0,0 l/m 0,0 km/h (0 Bft) N 0 15,1 C 15,9 C 0,0 km/h (0 Bft)
11.09.2016 02:40 16,0 C 95 % 1015,6 hPa 0,0 l/m 0,0 km/h (0 Bft) N 0 15,2 C 16,0 C 0,0 km/h (0 Bft)
11.09.2016 02:35 16,1 C 95 % 1015,7 hPa 0,0 l/m 0,0 km/h (0 Bft) N 0 15,3 C 16,1 C 0,0 km/h (0 Bft)
11.09.2016 02:30 16,1 C 95 % 1015,7 hPa 0,0 l/m 0,0 km/h (0 Bft) N 0 15,3 C 16,1 C 0,0 km/h (0 Bft)
11.09.2016 02:25 16,2 C 95 % 1015,7 hPa 0,0 l/m 0,0 km/h (0 Bft) N 0 15,4 C 16,2 C 0,0 km/h (0 Bft)
11.09.2016 02:20 16,2 C 95 % 1015,7 hPa 0,0 l/m 0,0 km/h (0 Bft) N 0 15,4 C 16,2 C 0,0 km/h (0 Bft)
11.09.2016 02:15 16,3 C 95 % 1015,7 hPa 0,0 l/m 0,0 km/h (0 Bft) N 0 15,5 C 16,3 C 0,0 km/h (0 Bft)
11.09.2016 02:10 16,3 C 95 % 1015,7 hPa 0,0 l/m 0,0 km/h (0 Bft) N 0 15,5 C 16,3 C 0,0 km/h (0 Bft)
11.09.2016 02:05 16,4 C 95 % 1015,8 hPa 0,0 l/m 0,0 km/h (0 Bft) N 0 15,6 C 16,4 C 0,0 km/h (0 Bft)
11.09.2016 02:00 16,4 C 94 % 1015,8 hPa 0,0 l/m 0,0 km/h (0 Bft) N 0 15,4 C 16,4 C 0,0 km/h (0 Bft)
11.09.2016 01:55 16,6 C 95 % 1015,7 hPa 0,0 l/m 0,0 km/h (0 Bft) N 0 15,8 C 16,6 C 0,0 km/h (0 Bft)
11.09.2016 01:50 16,6 C 94 % 1015,7 hPa 0,0 l/m 0,0 km/h (0 Bft) N 0 15,6 C 16,6 C 0,0 km/h (0 Bft)
11.09.2016 01:45 16,7 C 94 % 1015,8 hPa 0,0 l/m 0,0 km/h (0 Bft) N 0 15,7 C 16,7 C 0,0 km/h (0 Bft)
11.09.2016 01:40 16,8 C 94 % 1015,8 hPa 0,0 l/m 0,0 km/h (0 Bft) N 0 15,8 C 16,8 C 0,0 km/h (0 Bft)
11.09.2016 01:35 16,8 C 94 % 1015,8 hPa 0,0 l/m 0,0 km/h (0 Bft) N 0 15,8 C 16,8 C 0,0 km/h (0 Bft)
11.09.2016 01:30 16,9 C 94 % 1015,9 hPa 0,0 l/m 0,0 km/h (0 Bft) N 0 15,9 C 16,9 C 0,0 km/h (0 Bft)
11.09.2016 01:25 16,9 C 94 % 1015,9 hPa 0,0 l/m 0,0 km/h (0 Bft) N 0 15,9 C 16,9 C 0,0 km/h (0 Bft)
11.09.2016 01:20 17,0 C 94 % 1015,9 hPa 0,0 l/m 0,0 km/h (0 Bft) N 0 16,0 C 17,0 C 0,0 km/h (0 Bft)
11.09.2016 01:15 17,1 C 94 % 1016,0 hPa 0,0 l/m 0,0 km/h (0 Bft) N 0 16,1 C 17,1 C 0,0 km/h (0 Bft)
11.09.2016 01:10 17,1 C 94 % 1016,0 hPa 0,0 l/m 0,0 km/h (0 Bft) N 0 16,1 C 17,1 C 0,0 km/h (0 Bft)
11.09.2016 01:05 17,2 C 94 % 1016,0 hPa 0,0 l/m 0,0 km/h (0 Bft) N 0 16,2 C 17,2 C 0,0 km/h (0 Bft)
11.09.2016 01:00 17,2 C 94 % 1016,1 hPa 0,0 l/m 0,0 km/h (0 Bft) N 0 16,2 C 17,2 C 0,0 km/h (0 Bft)
_ Min-Zeit 07:00 17:45 03:25 - 00:00 - - 07:00 07:00 00:00
Minimum _ 14,9 C 44 % 1015,6 hPa - 0,0 km/h (0 Bft) - - 14,3 C 14,9 C 0,0 km/h (0 Bft)
_ Max-Zeit 17:40 08:55 00:00 00:00 11:00 - - 18:05 17:40 13:40
Maximum _ 30,2 C 97 % 1019,6 hPa 0,0 l/m 9,2 km/h
O-NO (2 Bft)
- - 18,6 C 30,2 C 12,9 km/h
O (3 Bft)
Durchschnitt _ 20,9 C 78 % 1017,3 hPa #0,0 l/m 0,7 km/h (0 Bft) N - 16,3 C 20,9 C 1,9 km/h (1 Bft)